createdAt,value
2023-01-12T00:01:59.550Z,8.21
2023-01-12T00:04:27.381Z,8.09
2023-01-12T00:06:55.034Z,8.18
2023-01-12T00:09:22.714Z,8.20
2023-01-12T00:11:51.779Z,8.28
2023-01-12T00:14:19.513Z,8.44
2023-01-12T00:16:47.196Z,8.18
2023-01-12T00:19:16.938Z,8.19
2023-01-12T00:21:58.234Z,8.13
2023-01-12T00:24:29.723Z,8.15
2023-01-12T00:27:00.044Z,8.40
2023-01-12T00:29:28.601Z,8.33
2023-01-12T00:31:57.989Z,8.21
2023-01-12T00:34:29.339Z,8.14
2023-01-12T00:36:57.789Z,8.16
2023-01-12T00:39:25.615Z,8.19
2023-01-12T00:42:11.681Z,8.19
2023-01-12T00:44:58.869Z,8.22
2023-01-12T00:47:27.058Z,8.26
2023-01-12T00:49:54.912Z,8.27
2023-01-12T00:52:30.865Z,8.29
2023-01-12T00:54:59.893Z,8.25
2023-01-12T01:05:48.532Z,8.20
2023-01-12T01:08:16.386Z,8.12
2023-01-12T01:10:45.601Z,8.09
2023-01-12T01:13:13.337Z,8.05
2023-01-12T01:15:42.539Z,8.05
2023-01-12T01:18:10.299Z,8.11
2023-01-12T01:20:38.915Z,8.23
2023-01-12T01:23:06.684Z,8.51
2023-01-12T01:25:34.392Z,8.42
2023-01-12T01:28:02.034Z,8.43
2023-01-12T01:30:29.755Z,8.35
2023-01-12T01:32:58.726Z,8.28
2023-01-12T01:35:26.493Z,8.46
2023-01-12T01:37:54.377Z,8.49
2023-01-12T01:40:22.096Z,8.45
2023-01-12T01:42:50.007Z,8.44
2023-01-12T01:45:17.948Z,8.44
2023-01-12T01:59:29.687Z,8.25
2023-01-12T02:01:57.795Z,8.22
2023-01-12T02:04:26.572Z,8.35
2023-01-12T02:06:57.300Z,8.44
2023-01-12T02:09:28.058Z,8.42
2023-01-12T02:12:14.331Z,8.54
2023-01-12T02:14:59.721Z,8.53
2023-01-12T02:17:43.115Z,8.40
2023-01-12T02:20:46.177Z,8.33
2023-01-12T02:23:38.536Z,8.24
2023-01-12T02:26:51.163Z,8.31
2023-01-12T02:29:48.775Z,8.39
2023-01-12T02:32:30.337Z,8.44
2023-01-12T02:35:08.174Z,8.59
2023-01-12T02:37:40.047Z,8.67
2023-01-12T02:40:16.479Z,9.07
2023-01-12T02:42:51.535Z,8.89
2023-01-12T02:45:28.493Z,8.85
2023-01-12T02:48:01.694Z,8.88
2023-01-12T02:50:35.673Z,8.96
2023-01-12T02:53:09.909Z,8.78
2023-01-12T02:55:40.337Z,8.63
2023-01-12T02:58:11.114Z,8.66
2023-01-12T03:00:41.120Z,8.59
2023-01-12T03:03:11.754Z,8.66
2023-01-12T03:05:41.737Z,8.66
2023-01-12T03:08:14.783Z,8.68
2023-01-12T03:10:53.900Z,8.66
2023-01-12T03:13:24.754Z,8.63
2023-01-12T03:15:56.394Z,8.64
2023-01-12T03:18:31.338Z,8.63
2023-01-12T03:21:04.490Z,8.85
2023-01-12T03:23:40.418Z,8.84
2023-01-12T03:26:10.921Z,8.78
2023-01-12T03:28:43.155Z,8.81
2023-01-12T03:31:15.497Z,8.79
2023-01-12T03:33:46.325Z,8.75
2023-01-12T03:36:19.960Z,8.77
2023-01-12T03:38:59.583Z,8.89
2023-01-12T03:41:37.411Z,8.73
2023-01-12T03:44:09.924Z,8.80
2023-01-12T03:46:44.014Z,8.78
2023-01-12T03:49:20.379Z,8.81
2023-01-12T03:51:50.252Z,8.85
2023-01-12T03:54:20.026Z,8.88
2023-01-12T03:56:49.840Z,8.79
2023-01-12T03:59:17.760Z,8.67
2023-01-12T04:01:46.484Z,8.67
2023-01-12T04:04:16.006Z,8.74
2023-01-12T04:06:43.735Z,8.88
2023-01-12T04:09:11.630Z,9.07
2023-01-12T04:11:57.094Z,9.06
2023-01-12T04:14:24.869Z,8.84
2023-01-12T04:16:53.321Z,8.76
2023-01-12T04:19:22.413Z,8.99
2023-01-12T04:22:07.854Z,8.98
2023-01-12T04:24:35.587Z,9.00
2023-01-12T04:27:03.273Z,9.26
2023-01-12T04:29:31.081Z,9.35
2023-01-12T04:31:58.854Z,9.31
2023-01-12T04:34:28.007Z,9.29
2023-01-12T04:36:55.775Z,9.06
2023-01-12T04:39:23.517Z,9.05
2023-01-12T04:41:51.172Z,9.27
2023-01-12T04:44:18.923Z,9.23
2023-01-12T04:46:47.017Z,9.12
2023-01-12T04:49:14.673Z,8.91
2023-01-12T04:51:44.468Z,8.84
2023-01-12T04:54:12.503Z,8.83
2023-01-12T04:56:40.229Z,9.07
2023-01-12T04:59:09.825Z,9.02
2023-01-12T05:01:38.958Z,8.98
2023-01-12T05:04:07.923Z,8.92
2023-01-12T05:06:35.678Z,8.74
2023-01-12T05:09:22.525Z,8.87
2023-01-12T05:11:50.292Z,8.73
2023-01-12T05:14:17.995Z,8.75
2023-01-12T05:16:45.646Z,8.80
2023-01-12T05:19:13.515Z,8.68
2023-01-12T05:21:41.232Z,8.61
2023-01-12T05:24:10.591Z,8.72
2023-01-12T05:26:38.323Z,8.81
2023-01-12T05:29:05.989Z,8.90
2023-01-12T05:31:34.999Z,8.99
2023-01-12T05:34:02.854Z,8.86
2023-01-12T05:36:30.824Z,8.90
2023-01-12T05:38:58.716Z,8.87
2023-01-12T05:41:28.514Z,8.81
2023-01-12T05:43:55.323Z,9.07
2023-01-12T05:46:25.593Z,8.98
2023-01-12T05:48:55.056Z,9.07
2023-01-12T05:51:23.842Z,9.25
2023-01-12T05:53:51.568Z,9.21
2023-01-12T05:56:21.442Z,9.38
2023-01-12T05:58:54.308Z,9.35
2023-01-12T06:01:22.640Z,9.29
2023-01-12T06:03:51.055Z,9.20
2023-01-12T06:06:19.819Z,9.33
2023-01-12T06:08:48.631Z,9.43
2023-01-12T06:11:31.302Z,9.22
2023-01-12T06:14:00.433Z,9.51
2023-01-12T06:16:29.405Z,9.33
2023-01-12T06:18:57.664Z,9.30
2023-01-12T06:21:26.291Z,9.38
2023-01-12T06:23:54.012Z,9.58
2023-01-12T06:26:21.723Z,9.56
2023-01-12T06:28:49.781Z,9.46
2023-01-12T06:31:18.879Z,9.26
2023-01-12T06:33:46.590Z,9.08
2023-01-12T06:36:14.514Z,9.11
2023-01-12T06:38:43.253Z,9.43
2023-01-12T06:41:33.397Z,9.53
2023-01-12T06:44:01.365Z,9.37
2023-01-12T06:46:30.465Z,9.45
2023-01-12T06:48:59.044Z,9.61
2023-01-12T06:51:27.251Z,9.57
2023-01-12T06:53:55.268Z,9.49
2023-01-12T06:56:23.513Z,9.54
2023-01-12T06:58:51.247Z,9.67
2023-01-12T07:01:19.014Z,9.77
2023-01-12T07:03:48.180Z,9.62
2023-01-12T07:06:16.543Z,9.77
2023-01-12T07:08:44.346Z,9.79
2023-01-12T07:11:14.887Z,9.90
2023-01-12T07:13:42.709Z,9.93
2023-01-12T07:16:11.040Z,9.76
2023-01-12T07:18:38.971Z,9.86
2023-01-12T07:21:09.915Z,9.66
2023-01-12T07:23:38.534Z,9.67
2023-01-12T07:26:06.726Z,9.87
2023-01-12T07:28:34.803Z,9.70
2023-01-12T07:31:03.468Z,9.70
2023-01-12T07:33:32.107Z,9.80
2023-01-12T07:36:00.767Z,10.01
2023-01-12T07:38:31.795Z,9.95
2023-01-12T07:41:00.382Z,10.01
2023-01-12T07:43:27.370Z,9.72
2023-01-12T07:45:56.781Z,9.76
2023-01-12T07:48:25.020Z,9.77
2023-01-12T07:50:52.829Z,9.90
2023-01-12T07:53:20.694Z,9.83
2023-01-12T07:55:49.770Z,9.85
2023-01-12T07:58:17.574Z,9.75
2023-01-12T08:00:45.334Z,9.87
2023-01-12T08:03:14.120Z,9.93
2023-01-12T08:05:42.131Z,10.01
2023-01-12T08:08:10.049Z,9.68
2023-01-12T08:10:37.950Z,9.62
2023-01-12T08:13:07.335Z,9.80
2023-01-12T08:15:40.044Z,9.75
2023-01-12T08:18:14.649Z,9.83
2023-01-12T08:20:42.620Z,9.73
2023-01-12T08:23:14.749Z,9.78
2023-01-12T08:25:47.505Z,9.77
2023-01-12T08:28:23.192Z,9.81
2023-01-12T08:30:52.273Z,9.62
2023-01-12T08:33:20.877Z,9.69
2023-01-12T08:35:49.471Z,9.83
2023-01-12T08:38:18.276Z,9.85
2023-01-12T08:41:04.076Z,9.79
2023-01-12T08:43:50.811Z,9.66
2023-01-12T08:46:18.522Z,9.91
2023-01-12T08:48:46.216Z,9.90
2023-01-12T08:51:13.874Z,9.84
2023-01-12T08:53:41.647Z,9.80
2023-01-12T08:56:10.159Z,9.97
2023-01-12T08:58:39.215Z,9.85
2023-01-12T09:01:08.976Z,9.90
2023-01-12T09:03:37.185Z,9.89
2023-01-12T09:06:10.624Z,9.85
2023-01-12T09:08:38.318Z,9.74
2023-01-12T09:11:07.389Z,9.97
2023-01-12T09:13:35.576Z,10.03
2023-01-12T09:16:12.756Z,9.96
2023-01-12T09:18:41.955Z,9.93
2023-01-12T09:21:11.469Z,9.95
2023-01-12T09:23:39.632Z,9.93
2023-01-12T09:26:09.045Z,9.78
2023-01-12T09:28:37.117Z,9.63
2023-01-12T09:31:08.382Z,9.77
2023-01-12T09:33:37.674Z,9.70
2023-01-12T09:36:08.466Z,9.81
2023-01-12T09:38:36.645Z,9.85
2023-01-12T09:41:11.093Z,9.88
2023-01-12T09:43:56.518Z,9.75
2023-01-12T09:46:47.682Z,9.90
2023-01-12T09:49:17.608Z,10.12
2023-01-12T09:51:54.159Z,10.02
2023-01-12T09:54:22.040Z,10.18
2023-01-12T09:56:59.574Z,10.05
2023-01-12T09:59:41.109Z,9.99
2023-01-12T10:02:14.311Z,10.04
2023-01-12T10:04:42.032Z,10.08
2023-01-12T10:07:15.015Z,10.10
2023-01-12T10:09:43.127Z,10.02
2023-01-12T10:12:20.222Z,9.96
2023-01-12T10:15:19.856Z,10.15
2023-01-12T10:17:53.291Z,10.33
2023-01-12T10:20:29.172Z,10.20
2023-01-12T10:23:02.649Z,10.21
2023-01-12T10:25:38.436Z,10.19
2023-01-12T10:28:09.256Z,10.08
2023-01-12T10:30:39.090Z,10.13
2023-01-12T10:33:14.283Z,10.36
2023-01-12T10:35:58.673Z,10.44
2023-01-12T10:38:30.157Z,10.41
2023-01-12T10:41:13.202Z,10.58
2023-01-12T10:43:43.139Z,10.48
2023-01-12T10:46:14.426Z,10.49
2023-01-12T10:48:45.855Z,10.42
2023-01-12T10:51:22.774Z,10.39
2023-01-12T10:53:53.295Z,10.29
2023-01-12T10:56:26.521Z,10.52
2023-01-12T10:58:57.100Z,10.23
2023-01-12T11:01:25.247Z,10.44
2023-01-12T11:04:05.471Z,10.45
2023-01-12T11:06:33.162Z,10.29
2023-01-12T11:09:18.857Z,10.58
2023-01-12T11:11:46.920Z,10.50
2023-01-12T11:14:25.647Z,10.50
2023-01-12T11:16:53.398Z,10.33
2023-01-12T11:19:27.855Z,10.23
2023-01-12T11:22:17.819Z,10.15
2023-01-12T11:24:52.901Z,10.25
2023-01-12T11:27:27.520Z,10.46
2023-01-12T11:29:59.828Z,10.57
2023-01-12T11:32:36.760Z,10.46
2023-01-12T11:35:23.343Z,10.30
2023-01-12T11:37:54.938Z,10.74
2023-01-12T11:40:28.209Z,10.58
2023-01-12T11:43:15.034Z,10.66
2023-01-12T11:45:53.439Z,10.60
2023-01-12T11:48:25.189Z,10.64
2023-01-12T11:50:55.009Z,10.44
2023-01-12T11:53:25.817Z,10.61
2023-01-12T11:56:07.241Z,10.44
2023-01-12T11:58:46.827Z,10.49
2023-01-12T12:01:22.856Z,10.63
2023-01-12T12:03:57.298Z,10.70
2023-01-12T12:06:41.109Z,10.48
2023-01-12T12:09:41.407Z,10.55
2023-01-12T12:12:15.607Z,10.63
2023-01-12T12:15:02.074Z,10.54
2023-01-12T12:17:41.925Z,10.37
2023-01-12T12:20:18.853Z,10.55
2023-01-12T12:23:01.064Z,10.61
2023-01-12T12:25:37.587Z,10.31
2023-01-12T12:28:19.925Z,10.60
2023-01-12T12:31:08.840Z,10.51
2023-01-12T12:33:50.557Z,10.45
2023-01-12T12:36:25.523Z,10.46
2023-01-12T12:39:19.204Z,10.63
2023-01-12T12:42:17.002Z,10.54
2023-01-12T12:45:11.636Z,10.33
2023-01-12T12:47:53.998Z,10.28
2023-01-12T12:50:24.834Z,10.34
2023-01-12T12:53:14.889Z,10.27
2023-01-12T12:55:44.881Z,10.49
2023-01-12T12:58:40.719Z,10.72
2023-01-12T13:01:43.241Z,10.75
2023-01-12T13:04:13.101Z,10.61
2023-01-12T13:06:46.889Z,10.73
2023-01-12T13:09:42.028Z,10.66
2023-01-12T13:12:36.351Z,10.72
2023-01-12T13:15:26.421Z,10.88
2023-01-12T13:17:55.556Z,10.71
2023-01-12T13:20:52.000Z,10.60
2023-01-12T13:23:46.115Z,10.71
2023-01-12T13:26:47.510Z,10.66
2023-01-12T13:29:49.708Z,10.86
2023-01-12T13:32:35.870Z,10.77
2023-01-12T13:35:03.827Z,10.68
2023-01-12T13:37:45.647Z,10.60
2023-01-12T13:40:19.869Z,10.89
2023-01-12T13:43:05.691Z,10.90
2023-01-12T13:45:36.861Z,10.88
2023-01-12T13:48:07.189Z,10.94
2023-01-12T13:50:37.399Z,10.69
2023-01-12T13:53:05.600Z,10.67
2023-01-12T13:55:37.053Z,10.73
2023-01-12T13:58:07.883Z,10.85
2023-01-12T14:00:37.135Z,10.71
2023-01-12T14:03:05.863Z,10.63
2023-01-12T14:05:43.832Z,10.91
2023-01-12T14:08:32.286Z,10.56
2023-01-12T14:11:16.743Z,10.68
2023-01-12T14:14:21.961Z,10.64
2023-01-12T14:17:12.045Z,10.83
2023-01-12T14:19:41.554Z,10.75
2023-01-12T14:22:18.758Z,10.81
2023-01-12T14:24:46.538Z,10.70
2023-01-12T14:27:22.736Z,10.84
2023-01-12T14:29:51.266Z,10.76
2023-01-12T14:32:23.527Z,10.75
2023-01-12T14:34:54.186Z,10.77
2023-01-12T14:37:29.673Z,10.78
2023-01-12T14:39:57.704Z,10.84
2023-01-12T14:42:43.217Z,10.65
2023-01-12T14:45:44.079Z,10.54
2023-01-12T14:48:28.208Z,10.94
2023-01-12T14:51:18.496Z,10.62
2023-01-12T14:53:47.712Z,10.58
2023-01-12T14:56:22.091Z,10.56
2023-01-12T14:58:50.259Z,10.41
2023-01-12T15:01:33.706Z,10.40
2023-01-12T15:04:03.404Z,10.52
2023-01-12T15:06:31.108Z,10.50
2023-01-12T15:09:01.140Z,10.47
2023-01-12T15:11:35.243Z,10.86
2023-01-12T15:14:04.922Z,10.72
2023-01-12T15:16:50.426Z,10.69
2023-01-12T15:19:36.889Z,10.80
2023-01-12T15:22:22.120Z,10.63
2023-01-12T15:25:07.201Z,10.60
2023-01-12T15:27:35.130Z,10.57
2023-01-12T15:30:02.836Z,10.60
2023-01-12T15:32:46.916Z,10.51
2023-01-12T15:35:21.084Z,10.46
2023-01-12T15:37:48.841Z,10.34
2023-01-12T15:40:17.254Z,10.39
2023-01-12T15:42:45.004Z,10.40
2023-01-12T15:45:23.630Z,10.34
2023-01-12T15:47:51.395Z,10.34
2023-01-12T15:50:20.551Z,10.49
2023-01-12T15:52:50.992Z,10.41
2023-01-12T15:55:20.230Z,10.40
2023-01-12T15:57:48.175Z,10.47
2023-01-12T16:00:19.025Z,10.49
2023-01-12T16:02:48.570Z,10.50
2023-01-12T16:05:17.644Z,10.50
2023-01-12T16:07:48.748Z,10.41
2023-01-12T16:10:17.968Z,10.41
2023-01-12T16:12:47.740Z,10.55
2023-01-12T16:15:18.629Z,10.42
2023-01-12T16:17:46.647Z,10.63
2023-01-12T16:20:16.775Z,10.77
2023-01-12T16:22:46.802Z,10.41
2023-01-12T16:25:15.633Z,10.25
2023-01-12T16:27:43.356Z,10.50
2023-01-12T16:30:15.772Z,10.48
2023-01-12T16:32:46.495Z,10.64
2023-01-12T16:35:15.764Z,10.55
2023-01-12T16:37:44.485Z,10.60
2023-01-12T16:40:14.567Z,10.54
2023-01-12T16:42:42.435Z,10.69
2023-01-12T16:45:11.104Z,10.68
2023-01-12T16:47:38.957Z,10.45
2023-01-12T16:50:07.794Z,10.60
2023-01-12T16:52:35.535Z,10.53
2023-01-12T16:55:04.740Z,10.43
2023-01-12T16:57:34.645Z,10.45
2023-01-12T17:00:02.389Z,10.64
2023-01-12T17:02:31.435Z,10.51
2023-01-12T17:04:59.700Z,10.49
2023-01-12T17:07:27.693Z,10.71
2023-01-12T17:09:55.587Z,10.57
2023-01-12T17:12:23.432Z,10.71
2023-01-12T17:14:52.966Z,10.70
2023-01-12T17:17:20.826Z,10.78
2023-01-12T17:19:49.129Z,10.69
2023-01-12T17:22:16.968Z,10.64
2023-01-12T17:24:45.107Z,10.56
2023-01-12T17:27:13.041Z,10.61
2023-01-12T17:29:40.822Z,10.75
2023-01-12T17:32:10.159Z,10.74
2023-01-12T17:34:40.255Z,10.79
2023-01-12T17:37:09.046Z,10.64
2023-01-12T17:39:39.569Z,10.56
2023-01-12T17:42:25.145Z,10.88
2023-01-12T17:44:52.808Z,10.65
2023-01-12T17:47:22.093Z,10.67
2023-01-12T17:49:49.873Z,10.68
2023-01-12T17:52:17.852Z,10.61
2023-01-12T17:54:45.683Z,10.89
2023-01-12T17:57:13.444Z,10.58
2023-01-12T17:59:41.380Z,10.53
2023-01-12T18:02:11.389Z,10.49
2023-01-12T18:04:40.834Z,10.66
2023-01-12T18:07:08.773Z,10.57
2023-01-12T18:09:37.302Z,10.68
2023-01-12T18:12:05.560Z,10.85
2023-01-12T18:14:33.428Z,10.68
2023-01-12T18:17:01.122Z,10.86
2023-01-12T18:19:29.925Z,10.70
2023-01-12T18:21:58.981Z,10.78
2023-01-12T18:24:26.704Z,10.74
2023-01-12T18:26:54.399Z,10.84
2023-01-12T18:29:22.612Z,10.66
2023-01-12T18:31:50.353Z,10.47
2023-01-12T18:34:19.172Z,10.56
2023-01-12T18:36:47.237Z,10.65
2023-01-12T18:39:18.264Z,10.60
2023-01-12T18:42:03.793Z,10.60
2023-01-12T18:44:32.461Z,10.73
2023-01-12T18:47:19.048Z,10.58
2023-01-12T18:49:47.355Z,10.58
2023-01-12T18:52:33.148Z,10.52
2023-01-12T18:55:02.611Z,10.88
2023-01-12T18:57:32.525Z,10.83
2023-01-12T19:00:09.811Z,10.75
2023-01-12T19:02:37.647Z,10.80
2023-01-12T19:05:22.044Z,10.68
2023-01-12T19:08:23.265Z,10.57
2023-01-12T19:10:52.877Z,10.61
2023-01-12T19:13:38.267Z,10.67
2023-01-12T19:16:24.423Z,11.07
2023-01-12T19:18:53.229Z,10.62
2023-01-12T19:21:38.784Z,10.76
2023-01-12T19:24:24.603Z,10.63
2023-01-12T19:27:11.060Z,10.78
2023-01-12T19:29:40.901Z,10.96
2023-01-12T19:32:09.529Z,10.90
2023-01-12T19:34:37.479Z,10.68
2023-01-12T19:37:05.240Z,10.68
2023-01-12T19:39:59.619Z,10.69
2023-01-12T19:42:48.130Z,10.66
2023-01-12T19:45:16.343Z,10.66
2023-01-12T19:47:44.143Z,10.63
2023-01-12T19:50:13.969Z,10.79
2023-01-12T19:52:43.471Z,10.47
2023-01-12T19:55:13.062Z,10.55
2023-01-12T19:57:42.970Z,10.63
2023-01-12T20:00:15.080Z,10.72
2023-01-12T20:02:44.175Z,10.90
2023-01-12T20:05:13.562Z,10.77
2023-01-12T20:07:41.588Z,10.79
2023-01-12T20:10:10.587Z,10.81
2023-01-12T20:12:38.383Z,10.74
2023-01-12T20:15:08.945Z,10.77
2023-01-12T20:17:36.855Z,10.75
2023-01-12T20:20:08.345Z,10.85
2023-01-12T20:22:36.614Z,10.83
2023-01-12T20:25:05.230Z,10.61
2023-01-12T20:27:34.043Z,10.72
2023-01-12T20:30:02.261Z,10.82
2023-01-12T20:32:32.366Z,10.80
2023-01-12T20:35:03.627Z,10.85
2023-01-12T20:37:31.549Z,10.78
2023-01-12T20:39:59.343Z,10.91
2023-01-12T20:42:29.223Z,10.69
2023-01-12T20:44:57.619Z,10.86
2023-01-12T20:47:26.222Z,10.95
2023-01-12T20:49:55.554Z,10.79
2023-01-12T20:52:23.561Z,10.69
2023-01-12T20:54:51.444Z,10.63
2023-01-12T20:57:20.560Z,10.58
2023-01-12T20:59:49.165Z,10.75
2023-01-12T21:02:19.455Z,10.87
2023-01-12T21:04:47.192Z,10.75
2023-01-12T21:07:16.601Z,10.80
2023-01-12T21:09:44.569Z,10.92
2023-01-12T21:12:12.590Z,10.74
2023-01-12T21:14:40.420Z,10.51
2023-01-12T21:17:08.246Z,10.66
2023-01-12T21:19:36.173Z,10.72
2023-01-12T21:22:04.284Z,10.64
2023-01-12T21:24:33.322Z,10.61
2023-01-12T21:27:01.321Z,10.63
2023-01-12T21:29:29.155Z,10.96
2023-01-12T21:31:57.166Z,10.88
2023-01-12T21:34:24.893Z,11.00
2023-01-12T21:36:52.598Z,10.79
2023-01-12T21:39:20.315Z,10.67
2023-01-12T21:42:07.010Z,10.91
2023-01-12T21:44:35.449Z,10.80
2023-01-12T21:47:03.313Z,10.89
2023-01-12T21:49:30.981Z,10.82
2023-01-12T21:51:58.633Z,10.83
2023-01-12T21:54:26.375Z,10.90
2023-01-12T21:56:55.471Z,10.80
2023-01-12T21:59:23.191Z,10.68
2023-01-12T22:01:50.908Z,10.61
2023-01-12T22:04:18.734Z,10.64
2023-01-12T22:06:46.462Z,10.70
2023-01-12T22:09:14.177Z,10.52
2023-01-12T22:11:41.856Z,10.80
2023-01-12T22:14:10.851Z,10.76
2023-01-12T22:16:38.572Z,10.84
2023-01-12T22:19:06.437Z,10.68
2023-01-12T22:21:34.310Z,10.64
2023-01-12T22:24:02.037Z,10.73
2023-01-12T22:26:30.464Z,10.68
2023-01-12T22:28:58.218Z,10.72
2023-01-12T22:31:27.430Z,10.77
2023-01-12T22:34:02.463Z,10.77
2023-01-12T22:36:32.810Z,10.63
2023-01-12T22:39:02.474Z,10.47
2023-01-12T22:41:30.212Z,10.58
2023-01-12T22:43:58.148Z,10.40
2023-01-12T22:46:28.721Z,10.52
2023-01-12T22:48:59.208Z,10.59
2023-01-12T22:51:29.317Z,10.40
2023-01-12T22:53:57.768Z,10.36
2023-01-12T22:56:26.371Z,10.53
2023-01-12T22:58:56.192Z,10.63
2023-01-12T23:01:25.851Z,10.48
2023-01-12T23:03:55.774Z,10.40
2023-01-12T23:06:25.116Z,10.48
2023-01-12T23:08:53.238Z,10.36
2023-01-12T23:11:23.623Z,10.31
2023-01-12T23:13:52.597Z,10.28
2023-01-12T23:16:20.388Z,10.27
2023-01-12T23:18:49.833Z,10.17
2023-01-12T23:21:21.760Z,10.20
2023-01-12T23:23:51.698Z,10.16
2023-01-12T23:26:22.802Z,10.33
2023-01-12T23:28:53.168Z,10.37
2023-01-12T23:31:23.289Z,10.33
2023-01-12T23:33:51.910Z,10.18
2023-01-12T23:36:23.162Z,10.40
2023-01-12T23:38:54.068Z,10.37
2023-01-12T23:41:24.520Z,10.45
2023-01-12T23:43:53.931Z,10.45
2023-01-12T23:46:23.242Z,10.38
2023-01-12T23:48:51.429Z,10.73
2023-01-12T23:51:19.389Z,10.65
2023-01-12T23:53:49.443Z,10.80
2023-01-12T23:56:17.590Z,10.56
2023-01-12T23:58:45.228Z,10.49
